createdAt,value
2018-12-12T00:00:59.129Z,34.87
2018-12-12T00:03:28.173Z,40.50
2018-12-12T00:05:57.228Z,53.60
2018-12-12T00:08:26.315Z,51.33
2018-12-12T00:10:55.389Z,47.27
2018-12-12T00:13:24.442Z,43.27
2018-12-12T00:16:06.622Z,40.07
2018-12-12T00:18:35.676Z,39.70
2018-12-12T00:21:04.737Z,41.73
2018-12-12T00:23:33.827Z,52.97
2018-12-12T00:26:02.886Z,51.60
2018-12-12T00:28:31.940Z,50.70
2018-12-12T00:31:01.021Z,42.37
2018-12-12T00:33:30.080Z,44.13
2018-12-12T00:35:59.129Z,42.87
2018-12-12T00:38:28.313Z,42.60
2018-12-12T00:40:57.377Z,39.90
2018-12-12T00:43:26.422Z,38.23
2018-12-12T00:45:56.468Z,36.60
2018-12-12T00:48:25.524Z,37.93
2018-12-12T00:50:54.594Z,37.47
2018-12-12T00:53:23.676Z,39.63
2018-12-12T00:56:02.399Z,38.23
2018-12-12T00:58:31.513Z,40.03
2018-12-12T01:01:00.583Z,37.97
2018-12-12T01:03:29.648Z,34.33
2018-12-12T01:05:58.736Z,34.23
2018-12-12T01:08:27.800Z,32.30
2018-12-12T01:11:02.439Z,32.03
2018-12-12T01:13:31.489Z,29.93
2018-12-12T01:16:02.482Z,30.13
2018-12-12T01:18:31.926Z,29.23
2018-12-12T01:21:00.981Z,26.93
2018-12-12T01:23:30.026Z,31.63
2018-12-12T01:25:59.111Z,34.53
2018-12-12T01:28:28.170Z,36.00
2018-12-12T01:30:57.230Z,34.70
2018-12-12T01:33:26.303Z,35.43
2018-12-12T01:35:55.356Z,38.27
2018-12-12T01:38:24.413Z,39.77
2018-12-12T01:40:53.515Z,35.67
2018-12-12T01:43:22.565Z,29.63
2018-12-12T01:45:51.627Z,28.07
2018-12-12T01:48:20.788Z,27.67
2018-12-12T01:50:49.837Z,26.83
2018-12-12T01:53:18.898Z,26.30
2018-12-12T01:55:48.069Z,28.73
2018-12-12T01:58:17.187Z,26.87
2018-12-12T02:00:46.190Z,29.53
2018-12-12T02:03:15.272Z,27.07
2018-12-12T02:05:44.335Z,24.83
2018-12-12T02:08:13.376Z,26.10
2018-12-12T02:10:42.460Z,23.37
2018-12-12T02:13:24.400Z,24.00
2018-12-12T02:15:53.486Z,21.20
2018-12-12T02:18:22.535Z,20.07
2018-12-12T02:20:51.590Z,19.40
2018-12-12T02:23:20.709Z,20.00
2018-12-12T02:25:49.763Z,20.40
2018-12-12T02:28:18.811Z,20.97
2018-12-12T02:30:47.899Z,20.87
2018-12-12T02:33:16.936Z,20.33
2018-12-12T02:35:45.992Z,20.27
2018-12-12T02:38:15.076Z,18.90
2018-12-12T02:40:44.133Z,18.27
2018-12-12T02:43:13.178Z,19.80
2018-12-12T02:45:42.283Z,20.87
2018-12-12T02:48:11.332Z,23.13
2018-12-12T02:50:40.391Z,22.93
2018-12-12T02:53:09.471Z,24.10
2018-12-12T02:55:38.526Z,24.33
2018-12-12T02:58:07.576Z,21.67
2018-12-12T03:00:36.646Z,19.90
2018-12-12T03:03:05.713Z,17.63
2018-12-12T03:05:34.756Z,17.40
2018-12-12T03:08:03.868Z,17.20
2018-12-12T03:10:32.925Z,18.30
2018-12-12T03:13:01.970Z,18.30
2018-12-12T03:15:31.330Z,19.30
2018-12-12T03:18:00.392Z,20.30
2018-12-12T03:20:29.453Z,20.50
2018-12-12T03:22:58.537Z,20.03
2018-12-12T03:25:27.590Z,19.70
2018-12-12T03:27:56.647Z,20.17
2018-12-12T03:30:25.779Z,21.03
2018-12-12T03:32:54.820Z,20.50
2018-12-12T03:35:23.872Z,21.23
2018-12-12T03:37:52.952Z,22.20
2018-12-12T03:40:22.014Z,22.10
2018-12-12T03:42:51.070Z,21.27
2018-12-12T03:45:20.156Z,20.73
2018-12-12T03:47:49.205Z,19.20
2018-12-12T03:50:18.260Z,17.63
2018-12-12T03:52:47.533Z,18.23
2018-12-12T03:55:16.593Z,21.20
2018-12-12T03:57:45.638Z,24.57
2018-12-12T04:00:14.720Z,25.90
2018-12-12T04:02:43.772Z,25.63
2018-12-12T04:05:12.829Z,26.40
2018-12-12T04:07:41.908Z,27.23
2018-12-12T04:10:10.968Z,26.53
2018-12-12T04:12:40.019Z,28.23
2018-12-12T04:15:09.130Z,26.33
2018-12-12T04:17:38.191Z,24.47
2018-12-12T04:20:07.265Z,22.90
2018-12-12T04:22:36.341Z,23.77
2018-12-12T04:25:05.390Z,24.67
2018-12-12T04:27:34.436Z,23.60
2018-12-12T04:30:03.539Z,23.83
2018-12-12T04:32:32.606Z,23.80
2018-12-12T04:35:01.658Z,24.37
2018-12-12T04:37:30.767Z,23.63
2018-12-12T04:39:59.813Z,25.50
2018-12-12T04:42:28.859Z,27.23
2018-12-12T04:44:57.937Z,28.37
2018-12-12T04:47:26.990Z,28.37
2018-12-12T04:49:56.033Z,29.80
2018-12-12T04:52:25.113Z,30.43
2018-12-12T04:54:54.178Z,30.10
2018-12-12T04:57:23.237Z,28.70
2018-12-12T04:59:52.339Z,30.17
2018-12-12T05:02:21.398Z,30.20
2018-12-12T05:04:50.455Z,31.10
2018-12-12T05:07:19.556Z,31.00
2018-12-12T05:09:48.620Z,29.43
2018-12-12T05:12:17.676Z,30.37
2018-12-12T05:14:46.763Z,31.23
2018-12-12T05:17:15.829Z,31.03
2018-12-12T05:19:44.889Z,33.77
2018-12-12T05:22:13.993Z,34.33
2018-12-12T05:24:43.232Z,36.07
2018-12-12T05:27:12.278Z,31.83
2018-12-12T05:29:45.331Z,30.20
2018-12-12T05:32:13.349Z,30.20
2018-12-12T05:34:42.401Z,29.77
2018-12-12T05:37:11.478Z,32.80
2018-12-12T05:39:40.598Z,35.73
2018-12-12T05:42:09.590Z,37.13
2018-12-12T05:44:38.686Z,36.57
2018-12-12T05:47:07.748Z,40.03
2018-12-12T05:49:36.804Z,37.90
2018-12-12T05:52:05.900Z,38.17
2018-12-12T05:54:34.961Z,39.33
2018-12-12T05:57:04.029Z,40.87
2018-12-12T05:59:33.126Z,45.60
2018-12-12T06:02:02.184Z,53.77
2018-12-12T06:04:31.238Z,52.53
2018-12-12T06:07:00.340Z,45.23
2018-12-12T06:09:29.395Z,46.10
2018-12-12T06:11:58.461Z,48.70
2018-12-12T06:14:27.546Z,48.77
2018-12-12T06:16:56.609Z,52.03
2018-12-12T06:19:25.682Z,66.90
2018-12-12T06:21:54.778Z,75.33
2018-12-12T06:24:23.837Z,69.07
2018-12-12T06:26:52.908Z,58.80
2018-12-12T06:29:22.065Z,56.43
2018-12-12T06:31:51.102Z,47.20
2018-12-12T06:34:20.163Z,59.83
2018-12-12T06:36:49.262Z,55.87
2018-12-12T06:39:18.331Z,58.53
2018-12-12T06:41:47.396Z,52.07
2018-12-12T06:44:16.488Z,48.07
2018-12-12T06:46:45.565Z,53.60
2018-12-12T06:49:14.633Z,52.93
2018-12-12T06:51:43.746Z,52.23
2018-12-12T06:54:12.805Z,53.63
2018-12-12T06:56:41.869Z,50.37
2018-12-12T06:59:10.948Z,53.87
2018-12-12T07:01:39.999Z,50.53
2018-12-12T07:04:09.062Z,49.60
2018-12-12T07:06:41.577Z,47.97
2018-12-12T07:09:10.651Z,47.60
2018-12-12T07:11:39.707Z,46.13
2018-12-12T07:14:08.815Z,53.53
2018-12-12T07:16:37.903Z,64.87
2018-12-12T07:19:06.958Z,61.97
2018-12-12T07:21:36.054Z,47.43
2018-12-12T07:24:05.117Z,44.77
2018-12-12T07:26:34.189Z,69.27
2018-12-12T07:29:03.283Z,62.33
2018-12-12T07:31:32.331Z,53.87
2018-12-12T07:34:01.460Z,44.57
2018-12-12T07:36:30.500Z,53.17
2018-12-12T07:38:59.553Z,55.50
2018-12-12T07:41:28.605Z,51.50
2018-12-12T07:43:57.687Z,53.73
2018-12-12T07:46:32.095Z,58.63
2018-12-12T07:49:01.173Z,67.10
2018-12-12T07:51:30.226Z,75.93
2018-12-12T07:53:59.281Z,74.97
2018-12-12T07:56:28.414Z,78.67
2018-12-12T07:58:57.492Z,75.77
2018-12-12T08:01:26.574Z,74.07
2018-12-12T08:03:55.664Z,72.10
2018-12-12T08:06:24.734Z,61.47
2018-12-12T08:08:53.798Z,64.20
2018-12-12T08:11:22.891Z,58.73
2018-12-12T08:13:51.959Z,54.10
2018-12-12T08:16:21.011Z,51.13
2018-12-12T08:18:50.131Z,51.63
2018-12-12T08:21:19.189Z,46.77
2018-12-12T08:23:48.241Z,49.10
2018-12-12T08:26:17.343Z,52.77
2018-12-12T08:28:46.389Z,52.50
2018-12-12T08:31:15.465Z,60.10
2018-12-12T08:33:44.558Z,62.13
2018-12-12T08:36:13.626Z,67.40
2018-12-12T08:38:42.691Z,69.23
2018-12-12T08:41:11.960Z,67.90
2018-12-12T08:43:41.035Z,56.60
2018-12-12T08:46:11.120Z,51.67
2018-12-12T08:48:40.203Z,56.30
2018-12-12T08:51:09.278Z,63.97
2018-12-12T08:53:38.348Z,64.17
2018-12-12T08:56:07.703Z,60.63
2018-12-12T08:58:36.781Z,25.30
2018-12-12T09:01:05.839Z,14.73
2018-12-12T09:03:35.305Z,12.60
2018-12-12T09:06:12.538Z,7.53
2018-12-12T09:08:41.624Z,9.73
2018-12-12T09:11:10.670Z,8.40
2018-12-12T09:13:39.710Z,7.83
2018-12-12T09:16:08.796Z,9.30
2018-12-12T09:18:37.853Z,7.83
2018-12-12T09:21:06.897Z,8.13
2018-12-12T09:23:36.019Z,4.90
2018-12-12T09:26:12.742Z,6.60
2018-12-12T09:28:41.805Z,6.53
2018-12-12T09:31:10.842Z,6.20
2018-12-12T09:33:39.903Z,9.90
2018-12-12T09:36:08.983Z,30.73
2018-12-12T09:38:38.072Z,22.10
2018-12-12T09:41:07.150Z,16.20
2018-12-12T09:43:36.284Z,13.10
2018-12-12T09:46:05.350Z,12.47
2018-12-12T09:48:34.418Z,15.03
2018-12-12T09:51:07.121Z,61.97
2018-12-12T09:53:32.574Z,81.67
2018-12-12T09:56:01.637Z,93.63
2018-12-12T09:58:30.743Z,100.80
2018-12-12T10:00:59.811Z,97.43
2018-12-12T10:03:31.080Z,91.13
2018-12-12T10:09:04.760Z,89.63
2018-12-12T10:11:33.853Z,92.00
2018-12-12T10:14:02.930Z,91.53
2018-12-12T10:16:32.000Z,89.03
2018-12-12T10:19:01.104Z,97.60
2018-12-12T10:21:30.162Z,100.40
2018-12-12T10:23:59.214Z,99.53
2018-12-12T10:26:28.333Z,92.87
2018-12-12T10:28:57.391Z,96.80
2018-12-12T10:31:26.457Z,94.07
2018-12-12T10:33:55.855Z,102.50
2018-12-12T10:36:24.933Z,103.53
2018-12-12T10:38:54.014Z,107.07
2018-12-12T10:41:23.125Z,119.20
2018-12-12T10:43:52.196Z,117.80
2018-12-12T10:46:21.262Z,121.77
2018-12-12T10:48:50.401Z,120.17
2018-12-12T10:51:19.482Z,117.07
2018-12-12T10:53:48.555Z,121.53
2018-12-12T10:56:17.667Z,129.77
2018-12-12T10:58:46.741Z,131.77
2018-12-12T11:01:21.479Z,136.83
2018-12-12T11:03:50.542Z,152.63
2018-12-12T11:06:19.612Z,189.83
2018-12-12T11:08:48.831Z,144.33
2018-12-12T11:11:17.907Z,129.47
2018-12-12T11:13:46.990Z,131.10
2018-12-12T11:16:16.097Z,128.00
2018-12-12T11:18:45.173Z,139.77
2018-12-12T11:21:14.243Z,142.60
2018-12-12T11:23:43.343Z,132.40
2018-12-12T11:26:12.408Z,146.40
2018-12-12T11:28:41.492Z,130.27
2018-12-12T11:31:10.618Z,132.10
2018-12-12T11:33:39.689Z,137.70
2018-12-12T11:36:17.061Z,141.93
2018-12-12T11:38:46.131Z,136.40
2018-12-12T11:41:15.198Z,120.43
2018-12-12T11:43:44.303Z,105.53
2018-12-12T11:46:13.380Z,104.97
2018-12-12T11:48:42.460Z,103.80
2018-12-12T11:51:11.746Z,105.20
2018-12-12T11:53:40.817Z,106.70
2018-12-12T11:56:09.895Z,101.67
2018-12-12T11:58:44.803Z,99.53
2018-12-12T12:01:13.872Z,95.73
2018-12-12T12:03:42.933Z,89.27
2018-12-12T12:06:12.109Z,94.33
2018-12-12T12:08:41.182Z,89.87
2018-12-12T12:11:10.237Z,96.57
2018-12-12T12:13:39.351Z,98.23
2018-12-12T12:16:08.417Z,89.57
2018-12-12T12:18:37.477Z,97.40
2018-12-12T12:21:06.571Z,92.63
2018-12-12T12:23:35.681Z,94.43
2018-12-12T12:26:09.344Z,44.20
2018-12-12T12:28:38.393Z,21.53
2018-12-12T12:31:07.447Z,14.73
2018-12-12T12:33:36.566Z,8.57
2018-12-12T12:36:05.626Z,11.30
2018-12-12T12:38:34.690Z,14.97
2018-12-12T12:41:03.759Z,12.77
2018-12-12T12:43:32.824Z,14.03
2018-12-12T12:46:01.891Z,18.70
2018-12-12T12:48:30.963Z,18.90
2018-12-12T12:51:00.016Z,22.13
2018-12-12T12:53:29.069Z,31.07
2018-12-12T12:55:58.200Z,32.53
2018-12-12T12:58:27.258Z,20.60
2018-12-12T13:00:56.315Z,25.17
2018-12-12T13:03:25.402Z,28.27
2018-12-12T13:05:54.460Z,34.03
2018-12-12T13:08:23.524Z,29.90
2018-12-12T13:10:52.609Z,19.30
2018-12-12T13:13:21.750Z,23.00
2018-12-12T13:15:50.724Z,23.13
2018-12-12T13:18:19.818Z,33.13
2018-12-12T13:20:48.894Z,25.33
2018-12-12T13:23:17.950Z,24.70
2018-12-12T13:25:47.036Z,31.67
2018-12-12T13:28:16.089Z,23.97
2018-12-12T13:30:45.149Z,37.63
2018-12-12T13:33:14.229Z,19.63
2018-12-12T13:35:43.283Z,33.67
2018-12-12T13:38:12.336Z,35.13
2018-12-12T13:40:41.453Z,32.50
2018-12-12T13:43:10.504Z,25.30
2018-12-12T13:45:39.571Z,21.43
2018-12-12T13:48:08.661Z,21.03
2018-12-12T13:50:37.720Z,31.03
2018-12-12T13:53:06.845Z,12.27
2018-12-12T13:55:35.866Z,16.53
2018-12-12T13:58:04.989Z,18.03
2018-12-12T14:00:38.972Z,19.67
2018-12-12T14:03:03.142Z,38.40
2018-12-12T14:05:32.202Z,30.03
2018-12-12T14:08:01.263Z,34.53
2018-12-12T14:10:30.348Z,32.57
2018-12-12T14:12:59.415Z,27.97
2018-12-12T14:15:28.467Z,44.80
2018-12-12T14:17:57.559Z,44.60
2018-12-12T14:20:26.639Z,231.30
2018-12-12T14:22:55.721Z,315.47
2018-12-12T14:25:24.832Z,372.57
2018-12-12T14:27:53.903Z,225.40
2018-12-12T14:30:22.980Z,179.30
2018-12-12T14:32:52.083Z,286.87
2018-12-12T14:35:21.158Z,234.53
2018-12-12T14:37:50.228Z,57.53
2018-12-12T14:40:19.307Z,44.00
2018-12-12T14:42:48.378Z,28.03
2018-12-12T14:45:17.438Z,34.23
2018-12-12T14:47:46.553Z,46.50
2018-12-12T14:50:15.604Z,60.20
2018-12-12T14:52:44.670Z,57.13
2018-12-12T14:55:13.830Z,42.63
2018-12-12T14:57:42.886Z,40.37
2018-12-12T15:00:11.952Z,42.43
2018-12-12T15:02:41.034Z,68.40
2018-12-12T15:05:10.091Z,83.17
2018-12-12T15:07:39.154Z,84.33
2018-12-12T15:10:08.543Z,88.40
2018-12-12T15:12:37.605Z,88.27
2018-12-12T15:15:06.667Z,103.00
2018-12-12T15:17:35.759Z,103.13
2018-12-12T15:20:04.830Z,99.90
2018-12-12T15:22:33.885Z,89.33
2018-12-12T15:25:02.978Z,85.30
2018-12-12T15:27:32.038Z,101.23
2018-12-12T15:30:01.100Z,71.37
2018-12-12T15:32:30.228Z,197.60
2018-12-12T15:34:59.311Z,100.13
2018-12-12T15:37:28.381Z,40.57
2018-12-12T15:39:57.461Z,38.33
2018-12-12T15:42:26.517Z,38.97
2018-12-12T15:44:55.599Z,98.33
2018-12-12T15:47:24.689Z,27.27
2018-12-12T15:49:53.735Z,22.17
2018-12-12T15:52:22.783Z,23.27
2018-12-12T15:54:51.904Z,25.13
2018-12-12T15:57:20.951Z,28.27
2018-12-12T15:59:50.011Z,25.27
2018-12-12T16:02:19.104Z,107.83
2018-12-12T16:04:49.166Z,54.20
2018-12-12T16:07:17.222Z,40.83
2018-12-12T16:09:46.303Z,32.90
2018-12-12T16:12:15.368Z,49.27
2018-12-12T16:14:44.432Z,69.00
2018-12-12T16:17:13.565Z,41.10
2018-12-12T16:19:42.619Z,34.60
2018-12-12T16:22:11.662Z,32.50
2018-12-12T16:24:40.757Z,36.50
2018-12-12T16:27:09.830Z,143.20
2018-12-12T16:29:38.894Z,139.70
2018-12-12T16:32:08.009Z,103.50
2018-12-12T16:34:37.085Z,112.30
2018-12-12T16:37:06.154Z,55.87
2018-12-12T16:39:35.389Z,46.77
2018-12-12T16:42:04.442Z,50.57
2018-12-12T16:44:33.500Z,21.03
2018-12-12T16:47:02.586Z,15.83
2018-12-12T16:49:31.638Z,21.17
2018-12-12T16:52:00.707Z,29.00
2018-12-12T16:54:29.795Z,91.80
2018-12-12T16:56:58.867Z,71.43
2018-12-12T16:59:27.922Z,33.07
2018-12-12T17:01:57.123Z,34.87
2018-12-12T17:04:26.180Z,39.33
2018-12-12T17:06:55.247Z,58.50
2018-12-12T17:09:24.342Z,78.63
2018-12-12T17:11:53.404Z,92.43
2018-12-12T17:14:22.478Z,129.93
2018-12-12T17:16:51.570Z,58.30
2018-12-12T17:19:20.633Z,84.87
2018-12-12T17:21:49.714Z,86.67
2018-12-12T17:24:18.814Z,106.17
2018-12-12T17:26:47.881Z,149.93
2018-12-12T17:29:16.951Z,216.17
2018-12-12T17:31:46.053Z,150.70
2018-12-12T17:34:15.118Z,115.33
2018-12-12T17:36:44.202Z,160.80
2018-12-12T17:39:13.304Z,111.40
2018-12-12T17:41:42.379Z,106.53
2018-12-12T17:44:11.460Z,110.80
2018-12-12T17:46:40.590Z,151.93
2018-12-12T17:49:09.661Z,89.20
2018-12-12T17:51:38.736Z,88.03
2018-12-12T17:54:07.838Z,126.90
2018-12-12T17:56:41.243Z,124.97
2018-12-12T17:59:10.340Z,119.73
2018-12-12T18:01:39.413Z,44.23
2018-12-12T18:04:08.490Z,111.77
2018-12-12T18:06:37.590Z,32.17
2018-12-12T18:09:06.640Z,33.57
2018-12-12T18:11:35.697Z,30.00
2018-12-12T18:14:04.778Z,22.10
2018-12-12T18:16:33.823Z,22.17
2018-12-12T18:19:02.891Z,27.40
2018-12-12T18:21:31.978Z,22.07
2018-12-12T18:24:01.026Z,30.10
2018-12-12T18:26:30.070Z,35.77
2018-12-12T18:28:59.206Z,26.53
2018-12-12T18:31:28.257Z,24.70
2018-12-12T18:33:57.943Z,32.33
2018-12-12T18:36:27.045Z,191.27
2018-12-12T18:38:56.099Z,31.93
2018-12-12T18:41:25.163Z,13.13
2018-12-12T18:43:54.248Z,58.90
2018-12-12T18:46:23.308Z,13.00
2018-12-12T18:48:52.373Z,10.90
2018-12-12T18:51:21.460Z,8.97
2018-12-12T18:53:50.515Z,13.63
2018-12-12T18:56:19.574Z,17.83
2018-12-12T18:58:48.666Z,13.57
2018-12-12T19:01:17.726Z,22.00
2018-12-12T19:03:46.788Z,28.90
2018-12-12T19:06:15.880Z,83.03
2018-12-12T19:08:44.948Z,78.00
2018-12-12T19:11:14.002Z,22.97
2018-12-12T19:13:43.185Z,13.50
2018-12-12T19:16:12.268Z,17.80
2018-12-12T19:18:41.329Z,8.70
2018-12-12T19:21:10.419Z,26.17
2018-12-12T19:23:39.471Z,30.37
2018-12-12T19:26:08.519Z,47.07
2018-12-12T19:28:37.615Z,58.87
2018-12-12T19:31:06.700Z,64.17
2018-12-12T19:33:35.757Z,53.00
2018-12-12T19:36:04.851Z,58.60
2018-12-12T19:38:33.912Z,67.90
2018-12-12T19:41:02.988Z,70.97
2018-12-12T19:43:32.363Z,60.67
2018-12-12T19:46:02.818Z,55.57
2018-12-12T19:51:31.225Z,50.80
2018-12-12T19:54:00.427Z,168.27
2018-12-12T19:56:29.503Z,71.90
2018-12-12T19:58:58.571Z,63.87
2018-12-12T20:01:27.747Z,45.73
2018-12-12T20:03:56.805Z,52.53
2018-12-12T20:06:25.884Z,101.87
2018-12-12T20:08:54.994Z,72.50
2018-12-12T20:11:24.168Z,55.77
2018-12-12T20:13:53.236Z,60.93
2018-12-12T20:16:22.354Z,59.80
2018-12-12T20:18:51.414Z,61.30
2018-12-12T20:21:20.475Z,63.43
2018-12-12T20:23:49.568Z,64.30
2018-12-12T20:26:18.637Z,54.30
2018-12-12T20:28:47.701Z,54.90
2018-12-12T20:31:16.815Z,54.43
2018-12-12T20:33:45.851Z,53.70
2018-12-12T20:36:21.618Z,43.10
2018-12-12T20:38:50.755Z,38.70
2018-12-12T20:41:19.799Z,36.03
2018-12-12T20:43:48.872Z,35.73
2018-12-12T20:46:17.933Z,35.00
2018-12-12T20:48:46.985Z,54.57
2018-12-12T20:51:16.075Z,54.80
2018-12-12T20:53:45.144Z,72.23
2018-12-12T20:56:21.394Z,57.20
2018-12-12T20:58:51.093Z,13.00
2018-12-12T21:01:21.095Z,12.97
2018-12-12T21:03:49.293Z,21.70
2018-12-12T21:06:18.345Z,43.53
2018-12-12T21:08:47.412Z,38.37
2018-12-12T21:11:16.519Z,28.87
2018-12-12T21:13:45.562Z,21.43
2018-12-12T21:16:18.757Z,18.53
2018-12-12T21:18:47.760Z,14.00
2018-12-12T21:21:16.823Z,12.07
2018-12-12T21:23:45.908Z,12.83
2018-12-12T21:26:14.977Z,14.23
2018-12-12T21:28:44.048Z,17.63
2018-12-12T21:31:13.522Z,21.50
2018-12-12T21:33:42.505Z,20.50
2018-12-12T21:36:13.580Z,12.03
2018-12-12T21:38:42.690Z,13.07
2018-12-12T21:41:11.785Z,11.43
2018-12-12T21:43:40.845Z,10.50
2018-12-12T21:46:09.921Z,11.17
2018-12-12T21:48:38.993Z,11.30
2018-12-12T21:51:08.050Z,12.13
2018-12-12T21:53:37.127Z,14.27
2018-12-12T21:56:06.186Z,18.30
2018-12-12T21:58:35.261Z,26.67
2018-12-12T22:01:04.466Z,51.70
2018-12-12T22:03:33.532Z,37.17
2018-12-12T22:06:07.305Z,30.13
2018-12-12T22:08:31.675Z,23.40
2018-12-12T22:11:00.745Z,40.43
2018-12-12T22:13:29.811Z,16.53
2018-12-12T22:16:01.171Z,21.03
2018-12-12T22:18:30.233Z,47.90
2018-12-12T22:20:59.332Z,51.27
2018-12-12T22:23:28.425Z,19.50
2018-12-12T22:25:57.478Z,16.80
2018-12-12T22:28:26.563Z,16.03
2018-12-12T22:30:55.632Z,9.63
2018-12-12T22:33:24.686Z,7.57
2018-12-12T22:35:53.746Z,10.00
2018-12-12T22:38:22.834Z,8.87
2018-12-12T22:40:51.902Z,10.57
2018-12-12T22:43:20.969Z,10.00
2018-12-12T22:45:50.169Z,11.70
2018-12-12T22:48:20.744Z,11.53
2018-12-12T22:50:48.279Z,16.83
2018-12-12T22:53:17.365Z,16.37
2018-12-12T22:55:46.430Z,14.63
2018-12-12T22:58:15.496Z,15.63
2018-12-12T23:00:44.906Z,11.73
2018-12-12T23:03:13.963Z,14.37
2018-12-12T23:05:43.019Z,12.33
2018-12-12T23:08:12.181Z,12.63
2018-12-12T23:10:41.256Z,10.57
2018-12-12T23:13:10.300Z,9.73
2018-12-12T23:15:39.462Z,4.80
2018-12-12T23:18:08.500Z,6.10
2018-12-12T23:20:37.544Z,4.23
2018-12-12T23:23:06.650Z,4.07
2018-12-12T23:25:35.693Z,4.30
2018-12-12T23:28:04.749Z,7.40
2018-12-12T23:30:33.930Z,5.33
2018-12-12T23:33:02.965Z,4.87
2018-12-12T23:35:32.021Z,5.03
2018-12-12T23:38:01.091Z,4.00
2018-12-12T23:40:30.134Z,5.60
2018-12-12T23:42:59.178Z,5.70
2018-12-12T23:45:28.520Z,4.47
2018-12-12T23:47:57.574Z,7.93
2018-12-12T23:50:26.638Z,9.10
2018-12-12T23:52:55.735Z,9.00
2018-12-12T23:55:24.776Z,6.53
2018-12-12T23:57:53.833Z,5.73
